Latest Coastal Weather Observations for Aireys Inlet

IDV60701

Issued at 3:55 am EST Friday 22 August 2014 (issued every 10 minutes, with the page automatically refreshed every 10 minutes)

About coastal observations | Map of coastal stations | Coastal observations for VIC | Marine services | Other Formats
Station Details ID: 090180 Name: AIREYS INLET Lat: -38.46 Lon: 144.09 Height: 95.0 m
Data from the previous 72 hours. | See also: Recent months at Aireys Inlet
Date/Time
EST
Temp

°C
Wind Pressure Rain
since 9am
mm
Weather Cloud Vis
km
Sea
Height
m
Swell
Dir
 
Speed
knots
Gust
knots
hPa Trend Height
m
Period
s
Dir
22/03:30am 10.2 NW 5 7 - - 0.0 - - - - - - -
22/03:00am 9.6 NNW 5 8 - - 0.0 - - - - - - -
22/02:30am 9.4 NNW 6 9 - - 0.0 - - - - - - -
22/02:00am 9.2 NNW 7 10 - - 0.0 - - - - - - -
22/01:30am 8.8 NNW 8 10 - - 0.0 - - - - - - -
22/01:00am 8.2 N 5 6 - - 0.0 - - - - - - -
22/12:30am 8.1 N 3 5 - - 0.0 - - - - - - -
22/12:00am 8.0 N 4 5 - - 0.0 - - - - - - -
 
Date/Time
EST
Temp

°C
Wind Pressure Rain
since 9am
mm
Weather Cloud Vis
km
Sea
Height
m
Swell
Dir
 
Speed
knots
Gust
knots
hPa Trend Height
m
Period
s
Dir
21/11:30pm 8.3 NNW 4 5 - - 0.0 - - - - - - -
21/11:00pm 8.7 NNW 3 4 - - 0.0 - - - - - - -
21/10:30pm 8.9 NNW 4 4 - - 0.0 - - - - - - -
21/10:00pm 9.1 NNW 4 5 - - 0.0 - - - - - - -
21/09:30pm 9.1 NNW 4 5 - - 0.0 - - - - - - -
21/09:00pm 9.3 NNW 4 5 - - 0.0 - - - - - - -
21/08:30pm 9.7 NNW 4 4 - - 0.0 - - - - - - -
21/08:00pm 9.7 NW 3 4 - - 0.0 - - - - - - -
21/07:30pm 10.4 WNW 2 3 - - 0.0 - - - - - - -
21/07:00pm 10.5 W 2 2 - - 0.0 - - - - - - -
21/06:30pm 10.4 WSW 2 2 - - 0.0 - - - - - - -
21/06:00pm 10.8 WSW 2 2 - - 0.0 - - - - - - -
21/05:30pm 11.1 CALM 0 0 - - 0.0 - - - - - - -
21/05:00pm 11.4 CALM 0 0 - - 0.0 - - - - - - -
21/04:30pm 11.4 SE 1 2 - - 0.0 - - - - - - -
21/04:00pm 11.5 E 1 2 - - 0.0 - - - - - - -
21/03:30pm 11.5 E 4 5 - - 0.0 - - - - - - -
21/03:00pm 11.6 E 3 5 - - 0.0 - - - - - - -
21/02:30pm 12.5 SSE 3 5 - - 0.0 - - - - - - -
21/02:00pm 12.9 SSE 3 5 - - 0.0 - - - - - - -
21/01:30pm 12.9 SSE 3 6 - - 0.0 - - - - - - -
21/01:00pm 12.6 SSE 3 5 - - 0.0 - - - - - - -
21/12:30pm 11.9 ESE 4 6 - - 0.0 - - - - - - -
21/12:00pm 12.5 E 3 6 - - 0.0 - - - - - - -
21/11:30am 12.8 SE 3 6 - - 0.0 - - - - - - -
21/11:00am 12.0 E 5 8 - - 0.0 - - - - - - -
21/10:30am 12.3 E 5 8 - - 0.0 - - - - - - -
21/10:00am 12.2 E 5 9 - - 0.0 - - - - - - -
21/09:30am 11.9 E 5 9 - - 0.0 - - - - - - -
21/09:00am 11.3 E 6 10 - - 0.0 - - - - - - -
21/08:30am 10.8 ENE 5 9 - - 0.0 - - - - - - -
21/08:00am 9.8 E 4 7 - - 0.0 - - - - - - -
21/07:30am 8.2 NNE 3 3 - - 0.0 - - - - - - -
21/07:00am 7.8 N 3 4 - - 0.0 - - - - - - -
21/06:30am 7.5 N 3 4 - - 0.0 - - - - - - -
21/06:00am 7.8 NNE 3 4 - - 0.0 - - - - - - -
21/05:30am 8.1 N 4 5 - - 0.0 - - - - - - -
21/05:00am 7.8 N 4 5 - - 0.0 - - - - - - -
21/04:30am 7.9 N 3 4 - - 0.0 - - - - - - -
21/04:00am 7.7 NNW 3 4 - - 0.0 - - - - - - -
21/03:30am 7.9 NNW 3 5 - - 0.0 - - - - - - -
21/03:00am 8.5 NNW 2 2 - - 0.0 - - - - - - -
21/02:30am 8.4 NNW 2 2 - - 0.0 - - - - - - -
21/02:00am 9.2 CALM 0 1 - - 0.0 - - - - - - -
21/01:30am 9.3 ESE 3 4 - - 0.0 - - - - - - -
21/01:00am 9.0 E 2 4 - - 0.0 - - - - - - -
21/12:30am 9.1 ESE 3 4 - - 0.0 - - - - - - -
21/12:00am 9.1 E 2 4 - - 0.0 - - - - - - -
 
Date/Time
EST
Temp

°C
Wind Pressure Rain
since 9am
mm
Weather Cloud Vis
km
Sea
Height
m
Swell
Dir
 
Speed
knots
Gust
knots
hPa Trend Height
m
Period
s
Dir
20/11:30pm 9.6 E 2 3 - - 0.0 - - - - - - -
20/11:00pm 9.8 SE 4 7 - - 0.0 - - - - - - -
20/10:30pm 9.2 W 2 4 - - 0.0 - - - - - - -
20/10:00pm 9.1 NW 1 4 - - 0.0 - - - - - - -
20/09:30pm 9.4 SW 2 4 - - 0.0 - - - - - - -
20/09:00pm 9.4 WSW 5 7 - - 0.0 - - - - - - -
20/08:30pm 9.1 W 3 4 - - 0.0 - - - - - - -
20/08:00pm 9.1 WNW 2 2 - - 0.0 - - - - - - -
20/07:30pm 9.2 WNW 1 2 - - 0.0 - - - - - - -
20/07:00pm 9.3 W 2 2 - - 0.0 - - - - - - -
20/06:30pm 9.5 SW 2 3 - - 0.0 - - - - - - -
20/06:00pm 10.5 S 5 9 - - 0.0 - - - - - - -
20/05:30pm 10.7 CALM 0 2 - - 0.0 - - - - - - -
20/05:00pm 10.8 S 6 11 - - 0.0 - - - - - - -
20/04:30pm 12.2 S 4 6 - - 0.0 - - - - - - -
20/04:00pm 12.5 SSW 5 8 - - 0.0 - - - - - - -
20/03:30pm 12.3 S 4 6 - - 0.0 - - - - - - -
20/03:00pm 13.5 S 5 8 - - 0.0 - - - - - - -
20/02:30pm 13.4 S 6 9 - - 0.0 - - - - - - -
20/02:00pm 12.7 S 7 10 - - 0.0 - - - - - - -
20/01:30pm 12.7 S 6 9 - - 0.0 - - - - - - -
20/01:00pm 13.3 SSW 7 11 - - 0.0 - - - - - - -
20/12:30pm 13.1 S 7 10 - - 0.0 - - - - - - -
20/12:00pm 12.2 S 7 10 - - 0.0 - - - - - - -
20/11:30am 11.7 S 3 4 - - 0.0 - - - - - - -
20/11:00am 11.0 SSE 6 11 - - 0.0 - - - - - - -
20/10:30am 11.7 S 7 10 - - 0.0 - - - - - - -
20/10:00am 12.3 S 7 10 - - 0.0 - - - - - - -
20/09:30am 10.3 S 8 12 - - 0.0 - - - - - - -
20/09:00am 9.9 SW 4 10 - - 0.0 - - - - - - -
20/08:30am 9.3 WSW 4 5 - - 0.0 - - - - - - -
20/08:00am 8.4 NW 2 2 - - 0.0 - - - - - - -
20/07:30am 8.2 NW 3 5 - - 0.0 - - - - - - -
20/07:00am 7.9 NNW 4 6 - - 0.0 - - - - - - -
20/06:30am 8.0 NNW 2 4 - - 0.0 - - - - - - -
20/06:00am 8.2 NNW 1 4 - - 0.0 - - - - - - -
20/05:30am 8.7 S 3 5 - - 0.0 - - - - - - -
20/05:00am 8.4 SW 2 3 - - 0.0 - - - - - - -
20/04:30am 9.1 SW 3 4 - - 0.0 - - - - - - -
20/04:00am 9.2 SW 5 7 - - 0.0 - - - - - - -
20/03:30am 9.4 SW 8 13 - - 0.0 - - - - - - -
20/03:00am 9.6 SSW 8 12 - - 0.0 - - - - - - -
20/02:30am 9.7 SSW 8 13 - - 0.0 - - - - - - -
20/02:00am 10.1 SSE 5 8 - - 0.0 - - - - - - -
20/01:30am 10.1 SSE 5 9 - - 0.0 - - - - - - -
20/01:00am 10.0 SSW 8 11 - - 0.0 - - - - - - -
20/12:30am 10.0 S 6 10 - - 0.0 - - - - - - -
20/12:00am 10.0 S 6 9 - - 0.0 - - - - - - -
 
Date/Time
EST
Temp

°C
Wind Pressure Rain
since 9am
mm
Weather Cloud Vis
km
Sea
Height
m
Swell
Dir
 
Speed
knots
Gust
knots
hPa Trend Height
m
Period
s
Dir
19/11:30pm 10.0 S 6 9 - - 0.0 - - - - - - -
19/11:00pm 9.9 SSW 7 10 - - 0.0 - - - - - - -
19/10:30pm 10.0 S 5 7 - - 0.0 - - - - - - -
19/10:00pm 10.0 S 7 12 - - 0.0 - - - - - - -
19/09:30pm 9.8 SE 3 5 - - 0.0 - - - - - - -
19/09:00pm 9.9 S 4 6 - - 0.0 - - - - - - -
19/08:30pm 9.6 S 5 8 - - 0.0 - - - - - - -
19/08:00pm 9.9 S 5 9 - - 0.0 - - - - - - -
19/07:30pm 10.2 SSE 6 10 - - 0.0 - - - - - - -
19/07:00pm 10.2 SSW 6 9 - - 0.0 - - - - - - -
19/06:30pm 10.1 S 6 9 - - 0.0 - - - - - - -
19/06:00pm 10.0 SSW 7 9 - - 0.0 - - - - - - -
19/05:30pm 10.7 SSW 7 10 - - 0.0 - - - - - - -
19/05:00pm 11.4 SSW 6 9 - - 0.0 - - - - - - -
19/04:30pm 12.4 SSW 7 11 - - 0.0 - - - - - - -
19/04:00pm 12.1 SW 8 12 - - 0.0 - - - - - - -
19/03:30pm 12.2 SSW 8 13 - - 0.0 - - - - - - -
19/03:00pm 14.1 SSW 7 10 - - 0.0 - - - - - - -
19/02:30pm 12.1 S 7 11 - - 0.0 - - - - - - -
19/02:00pm 13.0 SSW 7 12 - - 0.0 - - - - - - -
19/01:30pm 12.4 SSW 8 12 - - 0.0 - - - - - - -
19/01:00pm 12.0 SSW 9 14 - - 0.0 - - - - - - -
19/12:30pm 12.5 SSW 7 11 - - 0.0 - - - - - - -
19/12:00pm 12.3 SSW 6 11 - - 0.0 - - - - - - -
19/11:30am 11.4 SW 6 11 - - 0.0 - - - - - - -
19/11:00am 11.3 SW 8 11 - - 0.0 - - - - - - -
19/10:30am 11.0 SSW 8 11 - - 0.0 - - - - - - -
19/10:00am 10.9 SSW 7 11 - - 0.0 - - - - - - -
19/09:30am 10.7 SSW 6 12 - - 0.0 - - - - - - -
19/09:00am 10.5 S 7 11 - - 0.0 - - - - - - -
19/08:30am 10.5 S 7 11 - - 0.0 - - - - - - -
19/08:00am 10.3 S 7 13 - - 0.0 - - - - - - -
19/07:30am 10.2 SSW 7 11 - - 0.0 - - - - - - -
19/07:00am 10.1 S 6 9 - - 0.0 - - - - - - -
19/06:30am 9.8 S 8 11 - - 0.0 - - - - - - -
19/06:00am 10.3 S 7 11 - - 0.0 - - - - - - -
19/05:30am 10.3 S 6 11 - - 0.0 - - - - - - -
19/05:00am 10.4 SSE 5 9 - - 0.0 - - - - - - -
19/04:30am 10.5 S 7 10 - - 0.0 - - - - - - -
19/04:00am 10.6 SSE 7 12 - - 0.0 - - - - - - -

Other Formats:

Comma delimited format used in spreadsheet applications
http://www.bom.gov.au/fwo/IDV60701/IDV60701.94846.axf

JavaScript Object Notation format (JSON) in row-major order
http://www.bom.gov.au/fwo/IDV60701/IDV60701.94846.json